Wetterstation Vordersexau
Wetterdaten: Woche 07.04.14 - 13.04.14 (KW15)
Datum Zeit Temp. A. Feuchte A. Luftdruck Regen Wind Richtung Taupunkt Windchill Windben
07.04.2014 00:00 9,4 C 80 % 990,8 hPa 0,0 l/m 0,0 km/h NO 6,1 C 9,4 C 0,0 km/h
07.04.2014 01:00 8,4 C 82 % 990,9 hPa 0,0 l/m 0,0 km/h NO 5,5 C 8,4 C 0,0 km/h
07.04.2014 02:00 8,4 C 83 % 990,9 hPa 0,0 l/m 0,0 km/h O-NO 5,7 C 8,4 C 0,0 km/h
07.04.2014 03:00 7,1 C 83 % 990,9 hPa 0,0 l/m 0,0 km/h NO 4,4 C 7,1 C 0,0 km/h
07.04.2014 04:00 6,2 C 84 % 990,4 hPa 0,0 l/m 0,0 km/h SO 3,7 C 6,2 C 0,0 km/h
07.04.2014 05:00 6,3 C 83 % 990,1 hPa 0,0 l/m 0,0 km/h SO 3,6 C 6,3 C 0,0 km/h
07.04.2014 06:00 5,4 C 84 % 990,1 hPa 0,0 l/m 0,0 km/h NO 2,9 C 5,4 C 0,0 km/h
07.04.2014 07:00 5,3 C 83 % 990,4 hPa 0,0 l/m 0,0 km/h N-NO 2,7 C 5,3 C 0,0 km/h
07.04.2014 08:00 8,6 C 80 % 990,3 hPa 0,0 l/m 0,0 km/h SO 5,3 C 8,6 C 0,0 km/h
07.04.2014 09:00 16,1 C 74 % 990,1 hPa 0,0 l/m 0,0 km/h W-NW 11,5 C 16,1 C 0,0 km/h
07.04.2014 10:00 19,9 C 59 % 989,8 hPa 0,0 l/m 0,0 km/h W 11,6 C 19,9 C 0,0 km/h
07.04.2014 11:00 21,4 C 55 % 989,5 hPa 0,0 l/m 0,0 km/h SW 12,0 C 21,4 C 0,0 km/h
07.04.2014 12:00 24,3 C 47 % 989,0 hPa 0,0 l/m 0,6 km/h S-SW 12,3 C 24,3 C 0,4 km/h
07.04.2014 13:00 25,1 C 45 % 988,1 hPa 0,0 l/m 1,9 km/h W 12,3 C 25,1 C 1,1 km/h
07.04.2014 14:00 24,9 C 45 % 987,3 hPa 0,0 l/m 0,0 km/h W-SW 12,1 C 24,9 C 0,0 km/h
07.04.2014 15:00 25,6 C 44 % 986,3 hPa 0,0 l/m 0,0 km/h W-SW 12,4 C 25,6 C 0,0 km/h
07.04.2014 16:00 24,6 C 46 % 985,4 hPa 0,0 l/m 0,0 km/h SO 12,2 C 24,6 C 0,0 km/h
07.04.2014 17:00 25,3 C 43 % 984,8 hPa 0,0 l/m 0,0 km/h S-SO 11,8 C 25,3 C 0,0 km/h
07.04.2014 18:00 32,3 C 33 % 984,2 hPa 0,0 l/m 0,0 km/h W-SW 13,9 C 32,3 C 0,0 km/h
07.04.2014 19:00 25,3 C 41 % 984,1 hPa 0,0 l/m 0,0 km/h SO 11,1 C 25,3 C 0,0 km/h
07.04.2014 20:00 16,5 C 64 % 984,1 hPa 0,0 l/m 0,0 km/h O 9,7 C 16,5 C 0,0 km/h
07.04.2014 21:00 15,0 C 69 % 984,9 hPa 0,0 l/m 0,0 km/h NO 9,4 C 15,0 C 0,0 km/h
07.04.2014 22:00 13,8 C 72 % 985,1 hPa 0,0 l/m 0,0 km/h SO 8,8 C 13,8 C 0,0 km/h
07.04.2014 23:00 12,9 C 75 % 985,2 hPa 0,0 l/m 0,0 km/h O-NO 8,6 C 12,9 C 0,0 km/h
08.04.2014 00:00 11,9 C 78 % 984,9 hPa 0,0 l/m 0,0 km/h O-NO 8,2 C 11,9 C 0,0 km/h
08.04.2014 01:00 11,6 C 80 % 984,8 hPa 0,0 l/m 0,0 km/h SO 8,3 C 11,6 C 0,0 km/h
08.04.2014 02:00 11,6 C 80 % 985,0 hPa 0,0 l/m 0,0 km/h N 8,3 C 11,6 C 0,0 km/h
08.04.2014 03:00 15,4 C 66 % 986,1 hPa 0,0 l/m 0,4 km/h W-SW 9,1 C 15,4 C 0,4 km/h
08.04.2014 04:00 14,8 C 68 % 986,0 hPa 0,0 l/m 0,0 km/h N 9,0 C 14,8 C 0,0 km/h
08.04.2014 05:00 12,5 C 81 % 985,7 hPa 0,0 l/m 3,2 km/h W-NW 9,3 C 12,5 C 1,8 km/h
08.04.2014 06:00 12,8 C 81 % 985,9 hPa 0,0 l/m 0,0 km/h S-SW 9,6 C 12,8 C 0,0 km/h
08.04.2014 07:00 15,6 C 73 % 987,0 hPa 0,0 l/m 46,0 km/h SW 10,8 C 6,6 C 25,6 km/h
08.04.2014 08:00 13,3 C 79 % 988,2 hPa 0,0 l/m 16,2 km/h SW 9,7 C 8,7 C 9,0 km/h
08.04.2014 09:00 13,8 C 77 % 988,7 hPa 0,0 l/m 24,6 km/h NW 9,8 C 7,1 C 13,7 km/h
08.04.2014 10:00 14,8 C 76 % 989,8 hPa 0,0 l/m 8,4 km/h SO 10,6 C 13,7 C 4,7 km/h
08.04.2014 11:00 10,6 C 82 % 991,0 hPa 0,3 l/m 0,0 km/h N-NO 7,7 C 10,6 C 0,0 km/h
08.04.2014 12:00 16,9 C 72 % 991,2 hPa 0,0 l/m 2,6 km/h N 11,8 C 16,9 C 1,4 km/h
08.04.2014 13:00 19,6 C 59 % 990,8 hPa 0,0 l/m 0,0 km/h W-NW 11,4 C 19,6 C 0,0 km/h
08.04.2014 14:00 17,9 C 53 % 990,5 hPa 0,0 l/m 12,3 km/h W-NW 8,2 C 15,5 C 6,8 km/h
08.04.2014 15:00 19,9 C 42 % 990,2 hPa 0,0 l/m 5,8 km/h NW 6,6 C 19,9 C 3,2 km/h
08.04.2014 16:00 17,9 C 45 % 990,4 hPa 0,0 l/m 7,1 km/h N-NW 5,8 C 17,6 C 4,0 km/h
08.04.2014 17:00 17,4 C 40 % 990,8 hPa 0,0 l/m 20,7 km/h NW 3,7 C 12,7 C 11,5 km/h
08.04.2014 18:00 14,3 C 47 % 991,6 hPa 0,0 l/m 17,5 km/h N 3,1 C 9,5 C 9,7 km/h
08.04.2014 19:00 14,5 C 47 % 992,3 hPa 0,0 l/m 2,6 km/h W-NW 3,3 C 14,5 C 1,4 km/h
08.04.2014 20:00 11,8 C 53 % 993,2 hPa 0,0 l/m 7,1 km/h W 2,5 C 11,3 C 4,0 km/h
08.04.2014 21:00 11,1 C 54 % 994,0 hPa 0,0 l/m 1,4 km/h W-NW 2,2 C 11,1 C 1,4 km/h
08.04.2014 22:00 10,4 C 58 % 995,1 hPa 0,0 l/m 0,0 km/h NW 2,5 C 10,4 C 0,0 km/h
08.04.2014 23:00 9,2 C 62 % 995,5 hPa 0,0 l/m 0,0 km/h NW 2,3 C 9,2 C 0,0 km/h
09.04.2014 00:00 8,2 C 69 % 996,0 hPa 0,0 l/m 0,0 km/h N-NO 2,9 C 8,2 C 0,0 km/h
09.04.2014 01:00 9,2 C 67 % 996,5 hPa 0,0 l/m 0,0 km/h NW 3,4 C 9,2 C 0,0 km/h
09.04.2014 02:00 8,8 C 67 % 996,6 hPa 0,0 l/m 0,0 km/h NW 3,0 C 8,8 C 0,0 km/h
09.04.2014 03:00 7,1 C 72 % 996,8 hPa 0,0 l/m 0,0 km/h N-NO 2,4 C 7,1 C 0,0 km/h
09.04.2014 04:00 6,2 C 72 % 996,9 hPa 0,0 l/m 0,0 km/h O-SO 1,5 C 6,2 C 0,0 km/h
09.04.2014 05:00 5,3 C 74 % 997,0 hPa 0,0 l/m 2,6 km/h O-NO 1,0 C 5,3 C 1,4 km/h
09.04.2014 06:00 3,4 C 79 % 997,1 hPa 0,0 l/m 0,0 km/h O-NO 0,1 C 3,4 C 0,0 km/h
09.04.2014 07:00 2,7 C 82 % 997,2 hPa 0,0 l/m 0,0 km/h O-SO -0,1 C 2,7 C 0,0 km/h
09.04.2014 08:00 5,3 C 82 % 997,7 hPa 0,0 l/m 0,0 km/h O-SO 2,5 C 5,3 C 0,0 km/h
09.04.2014 09:00 13,8 C 65 % 997,8 hPa 0,0 l/m 0,0 km/h W-NW 7,3 C 13,8 C 0,0 km/h
09.04.2014 10:00 17,2 C 46 % 997,9 hPa 0,0 l/m 1,3 km/h W-SW 5,5 C 17,2 C 0,7 km/h
09.04.2014 11:00 19,2 C 42 % 997,7 hPa 0,0 l/m 0,0 km/h O-SO 6,0 C 19,2 C 0,0 km/h
09.04.2014 12:00 20,1 C 35 % 997,7 hPa 0,0 l/m 3,2 km/h N-NO 4,2 C 20,1 C 1,8 km/h
09.04.2014 13:00 19,1 C 35 % 997,1 hPa 0,0 l/m 0,0 km/h N-NW 3,3 C 19,1 C 0,0 km/h
09.04.2014 14:00 18,4 C 36 % 996,6 hPa 0,0 l/m 50,5 km/h W-NW 3,1 C 10,6 C 28,1 km/h
09.04.2014 15:00 20,9 C 34 % 995,7 hPa 0,0 l/m 5,2 km/h N 4,4 C 20,9 C 2,9 km/h
09.04.2014 16:00 22,4 C 29 % 995,3 hPa 0,0 l/m 0,0 km/h NO 3,5 C 22,4 C 0,0 km/h
09.04.2014 17:00 24,3 C 28 % 994,9 hPa 0,0 l/m 0,0 km/h W 4,6 C 24,3 C 0,0 km/h
09.04.2014 18:00 25,1 C 28 % 994,3 hPa 0,0 l/m 5,2 km/h W-NW 5,3 C 25,1 C 2,9 km/h
09.04.2014 19:00 21,1 C 31 % 994,2 hPa 0,0 l/m 0,0 km/h N 3,3 C 21,1 C 0,0 km/h
09.04.2014 20:00 11,1 C 46 % 994,5 hPa 0,0 l/m 0,0 km/h O-SO -0,1 C 11,1 C 0,0 km/h
09.04.2014 21:00 7,8 C 59 % 995,4 hPa 0,0 l/m 0,0 km/h O-NO 0,3 C 7,8 C 0,0 km/h
09.04.2014 22:00 7,2 C 67 % 995,3 hPa 0,0 l/m 0,0 km/h O-SO 1,5 C 7,2 C 0,0 km/h
09.04.2014 23:00 6,3 C 71 % 995,4 hPa 0,0 l/m 0,0 km/h SO 1,4 C 6,3 C 0,0 km/h
10.04.2014 00:00 5,6 C 74 % 995,3 hPa 0,0 l/m 0,0 km/h O-SO 1,3 C 5,6 C 0,0 km/h
10.04.2014 01:00 4,4 C 77 % 995,2 hPa 0,0 l/m 0,0 km/h O-SO 0,7 C 4,4 C 0,0 km/h
10.04.2014 02:00 3,9 C 79 % 994,8 hPa 0,0 l/m 0,0 km/h O 0,6 C 3,9 C 0,0 km/h
10.04.2014 03:00 3,4 C 79 % 994,4 hPa 0,0 l/m 0,0 km/h O-NO 0,1 C 3,4 C 0,0 km/h
10.04.2014 04:00 3,1 C 81 % 994,0 hPa 0,0 l/m 0,0 km/h SO 0,2 C 3,1 C 0,0 km/h
10.04.2014 05:00 1,9 C 82 % 993,9 hPa 0,0 l/m 0,0 km/h O-NO -0,8 C 1,9 C 0,0 km/h
10.04.2014 06:00 1,4 C 83 % 993,7 hPa 0,0 l/m 0,0 km/h NO -1,2 C 1,4 C 0,0 km/h
10.04.2014 07:00 2,4 C 84 % 993,8 hPa 0,0 l/m 0,0 km/h O-SO -0,0 C 2,4 C 0,0 km/h
10.04.2014 08:00 5,4 C 83 % 994,1 hPa 0,0 l/m 0,0 km/h SO 2,7 C 5,4 C 0,0 km/h
10.04.2014 09:00 13,0 C 64 % 994,1 hPa 0,0 l/m 7,8 km/h W-NW 6,4 C 12,1 C 4,3 km/h
10.04.2014 10:00 17,8 C 49 % 994,0 hPa 0,0 l/m 0,0 km/h NW 6,9 C 17,8 C 0,0 km/h
10.04.2014 11:00 20,4 C 42 % 993,4 hPa 0,0 l/m 8,4 km/h NW 7,1 C 19,6 C 4,7 km/h
10.04.2014 12:00 21,9 C 38 % 993,0 hPa 0,0 l/m 1,3 km/h W-NW 6,9 C 21,9 C 0,7 km/h
10.04.2014 13:00 21,5 C 40 % 992,3 hPa 0,0 l/m 3,9 km/h W 7,3 C 21,5 C 2,2 km/h
10.04.2014 14:00 21,2 C 42 % 991,3 hPa 0,0 l/m 9,1 km/h W 7,8 C 20,2 C 5,0 km/h
10.04.2014 15:00 24,5 C 37 % 990,5 hPa 0,0 l/m 3,9 km/h W-SW 8,8 C 24,5 C 2,2 km/h
10.04.2014 16:00 26,8 C 30 % 989,8 hPa 0,0 l/m 9,1 km/h W-NW 7,8 C 26,3 C 5,0 km/h
10.04.2014 17:00 27,8 C 30 % 989,3 hPa 0,0 l/m 0,0 km/h NW 8,6 C 27,8 C 0,0 km/h
10.04.2014 18:00 26,8 C 30 % 988,8 hPa 0,0 l/m 0,0 km/h N 7,8 C 26,8 C 0,0 km/h
10.04.2014 19:00 25,8 C 31 % 988,5 hPa 0,0 l/m 0,0 km/h W-NW 7,4 C 25,8 C 0,0 km/h
10.04.2014 20:00 14,1 C 51 % 988,8 hPa 0,0 l/m 0,0 km/h NW 4,1 C 14,1 C 0,0 km/h
10.04.2014 21:00 10,8 C 64 % 988,9 hPa 0,0 l/m 0,0 km/h SO 4,3 C 10,8 C 0,0 km/h
10.04.2014 22:00 9,9 C 71 % 989,0 hPa 0,0 l/m 0,0 km/h O-NO 4,9 C 9,9 C 0,0 km/h
10.04.2014 23:00 8,5 C 74 % 989,0 hPa 0,0 l/m 0,0 km/h SO 4,1 C 8,5 C 0,0 km/h
11.04.2014 00:00 8,3 C 76 % 988,9 hPa 0,0 l/m 0,0 km/h SO 4,3 C 8,3 C 0,0 km/h
11.04.2014 01:00 8,5 C 77 % 988,6 hPa 0,0 l/m 1,4 km/h O-NO 4,7 C 8,5 C 1,4 km/h
11.04.2014 02:00 6,5 C 77 % 988,5 hPa 0,0 l/m 0,0 km/h N 2,8 C 6,5 C 0,0 km/h
11.04.2014 03:00 4,9 C 80 % 988,1 hPa 0,0 l/m 0,0 km/h N 1,7 C 4,9 C 0,0 km/h
11.04.2014 04:00 4,4 C 83 % 987,4 hPa 0,0 l/m 0,0 km/h N-NO 1,8 C 4,4 C 0,0 km/h
11.04.2014 05:00 4,2 C 84 % 987,0 hPa 0,0 l/m 0,0 km/h N-NO 1,7 C 4,2 C 0,0 km/h
11.04.2014 06:00 3,5 C 84 % 987,2 hPa 0,0 l/m 0,0 km/h N-NO 1,1 C 3,5 C 0,0 km/h
11.04.2014 07:00 3,5 C 84 % 987,4 hPa 0,0 l/m 0,0 km/h O-SO 1,1 C 3,5 C 0,0 km/h
11.04.2014 08:00 8,5 C 83 % 987,5 hPa 0,0 l/m 0,0 km/h W-NW 5,8 C 8,5 C 0,0 km/h
11.04.2014 09:00 14,4 C 70 % 987,6 hPa 0,0 l/m 0,0 km/h N 9,0 C 14,4 C 0,0 km/h
11.04.2014 10:00 18,8 C 54 % 987,6 hPa 0,0 l/m 4,5 km/h NW 9,3 C 18,8 C 2,5 km/h
11.04.2014 11:00 21,7 C 46 % 987,5 hPa 0,0 l/m 7,8 km/h W-NW 9,6 C 21,2 C 4,3 km/h
11.04.2014 12:00 23,9 C 43 % 987,0 hPa 0,0 l/m 0,0 km/h W 10,5 C 23,9 C 0,0 km/h
11.04.2014 13:00 25,2 C 41 % 986,2 hPa 0,0 l/m 11,0 km/h NW 11,0 C 24,2 C 6,1 km/h
11.04.2014 14:00 24,9 C 39 % 985,3 hPa 0,0 l/m 12,3 km/h NW 10,0 C 23,6 C 6,8 km/h
11.04.2014 15:00 26,2 C 35 % 985,1 hPa 0,0 l/m 9,7 km/h W-NW 9,5 C 25,5 C 5,4 km/h
11.04.2014 16:00 28,9 C 30 % 984,5 hPa 0,0 l/m 1,3 km/h W-SW 9,6 C 28,9 C 0,7 km/h
11.04.2014 17:00 30,9 C 27 % 984,2 hPa 0,0 l/m 2,6 km/h W-NW 9,7 C 30,9 C 1,4 km/h
11.04.2014 18:00 29,4 C 28 % 984,2 hPa 0,0 l/m 1,3 km/h N-NW 9,0 C 29,4 C 0,7 km/h
11.04.2014 19:00 22,9 C 33 % 984,3 hPa 0,0 l/m 0,0 km/h N-NO 5,8 C 22,9 C 0,0 km/h
11.04.2014 20:00 15,5 C 47 % 984,6 hPa 0,0 l/m 0,0 km/h SO 4,2 C 15,5 C 0,0 km/h
11.04.2014 21:00 11,3 C 63 % 985,3 hPa 0,0 l/m 0,0 km/h SO 4,5 C 11,3 C 0,0 km/h
11.04.2014 22:00 11,4 C 69 % 985,8 hPa 0,0 l/m 0,0 km/h SO 5,9 C 11,4 C 0,0 km/h
11.04.2014 23:00 11,8 C 68 % 986,2 hPa 0,0 l/m 0,0 km/h SO 6,1 C 11,8 C 0,0 km/h
12.04.2014 00:00 11,9 C 68 % 986,0 hPa 0,0 l/m 0,0 km/h SO 6,2 C 11,9 C 0,0 km/h
12.04.2014 01:00 12,4 C 67 % 985,9 hPa 0,0 l/m 0,0 km/h NO 6,4 C 12,4 C 0,0 km/h
12.04.2014 02:00 11,9 C 68 % 985,9 hPa 0,0 l/m 0,0 km/h NO 6,2 C 11,9 C 0,0 km/h
12.04.2014 03:00 10,4 C 73 % 986,0 hPa 0,0 l/m 0,0 km/h NO 5,8 C 10,4 C 0,0 km/h
12.04.2014 04:00 8,3 C 76 % 985,7 hPa 0,0 l/m 0,0 km/h NO 4,3 C 8,3 C 0,0 km/h
12.04.2014 05:00 7,8 C 80 % 986,0 hPa 0,0 l/m 0,0 km/h O-SO 4,6 C 7,8 C 0,0 km/h
12.04.2014 06:00 7,8 C 81 % 985,8 hPa 0,0 l/m 0,0 km/h O-NO 4,7 C 7,8 C 0,0 km/h
12.04.2014 07:00 6,9 C 82 % 986,1 hPa 0,0 l/m 0,0 km/h O 4,0 C 6,9 C 0,0 km/h
12.04.2014 08:00 9,3 C 83 % 986,6 hPa 0,0 l/m 0,0 km/h N 6,6 C 9,3 C 0,0 km/h
12.04.2014 09:00 16,8 C 65 % 986,9 hPa 0,0 l/m 1,1 km/h W-NW 10,2 C 16,8 C 1,1 km/h
12.04.2014 10:00 19,9 C 54 % 987,1 hPa 0,0 l/m 0,0 km/h S-SW 10,3 C 19,9 C 0,0 km/h
12.04.2014 11:00 22,7 C 48 % 987,4 hPa 0,0 l/m 0,7 km/h S-SW 11,1 C 22,7 C 0,7 km/h
12.04.2014 12:00 24,8 C 43 % 987,2 hPa 0,0 l/m 1,3 km/h N 11,4 C 24,8 C 0,7 km/h
12.04.2014 13:00 24,7 C 42 % 986,5 hPa 0,0 l/m 0,0 km/h N-NW 10,9 C 24,7 C 0,0 km/h
12.04.2014 14:00 24,4 C 41 % 986,1 hPa 0,0 l/m 1,3 km/h N-NO 10,3 C 24,4 C 0,7 km/h
12.04.2014 15:00 26,5 C 34 % 985,6 hPa 0,0 l/m 1,9 km/h W-NW 9,3 C 26,5 C 1,1 km/h
12.04.2014 16:00 28,5 C 33 % 985,4 hPa 0,0 l/m 9,7 km/h W-NW 10,6 C 28,1 C 5,4 km/h
12.04.2014 17:00 28,3 C 31 % 985,1 hPa 0,0 l/m 0,0 km/h W-NW 9,5 C 28,3 C 0,0 km/h
12.04.2014 18:00 21,5 C 41 % 985,1 hPa 0,0 l/m 0,0 km/h N 7,7 C 21,5 C 0,0 km/h
12.04.2014 19:00 20,1 C 45 % 985,1 hPa 0,0 l/m 0,0 km/h N-NO 7,8 C 20,1 C 0,0 km/h
12.04.2014 20:00 17,3 C 54 % 985,9 hPa 0,0 l/m 10,4 km/h NO 7,9 C 15,5 C 5,8 km/h
12.04.2014 21:00 16,1 C 55 % 986,9 hPa 0,0 l/m 0,0 km/h O-SO 7,1 C 16,1 C 0,0 km/h
12.04.2014 22:00 15,1 C 58 % 987,8 hPa 0,0 l/m 0,0 km/h O-SO 6,9 C 15,1 C 0,0 km/h
12.04.2014 23:00 13,8 C 64 % 988,1 hPa 0,0 l/m 0,0 km/h O-SO 7,1 C 13,8 C 0,0 km/h
13.04.2014 00:00 12,9 C 67 % 987,9 hPa 0,0 l/m 0,0 km/h O-SO 6,9 C 12,9 C 0,0 km/h
13.04.2014 01:00 12,2 C 71 % 988,2 hPa 0,0 l/m 0,0 km/h O-SO 7,1 C 12,2 C 0,0 km/h
13.04.2014 02:00 10,9 C 74 % 988,5 hPa 0,0 l/m 0,0 km/h O-SO 6,5 C 10,9 C 0,0 km/h
13.04.2014 03:00 10,5 C 77 % 988,4 hPa 0,0 l/m 0,0 km/h O-SO 6,6 C 10,5 C 0,0 km/h
13.04.2014 04:00 9,9 C 77 % 988,7 hPa 0,0 l/m 0,0 km/h O-SO 6,1 C 9,9 C 0,0 km/h
13.04.2014 05:00 10,0 C 78 % 989,2 hPa 0,0 l/m 0,0 km/h O-NO 6,3 C 10,0 C 0,0 km/h
13.04.2014 06:00 9,8 C 79 % 989,4 hPa 0,0 l/m 0,0 km/h NO 6,3 C 9,8 C 0,0 km/h
13.04.2014 07:00 9,0 C 80 % 989,8 hPa 0,0 l/m 0,0 km/h NO 5,7 C 9,0 C 0,0 km/h
13.04.2014 08:00 9,8 C 81 % 990,6 hPa 0,0 l/m 0,0 km/h O-SO 6,7 C 9,8 C 0,0 km/h
13.04.2014 09:00 16,8 C 69 % 990,7 hPa 0,0 l/m 0,0 km/h N-NO 11,1 C 16,8 C 0,0 km/h
13.04.2014 10:00 19,3 C 50 % 990,9 hPa 0,0 l/m 0,0 km/h N-NO 8,6 C 19,3 C 0,0 km/h
13.04.2014 11:00 22,6 C 42 % 991,1 hPa 0,0 l/m 0,0 km/h W 9,0 C 22,6 C 0,0 km/h
13.04.2014 12:00 22,9 C 40 % 991,1 hPa 0,0 l/m 3,9 km/h SW 8,6 C 22,9 C 2,2 km/h
13.04.2014 13:00 23,0 C 38 % 990,9 hPa 0,0 l/m 0,0 km/h W-NW 7,9 C 23,0 C 0,0 km/h
13.04.2014 14:00 21,8 C 38 % 990,4 hPa 0,0 l/m 12,3 km/h S-SO 6,8 C 20,0 C 6,8 km/h
13.04.2014 15:00 25,2 C 33 % 989,9 hPa 0,0 l/m 4,5 km/h N-NW 7,8 C 25,2 C 2,5 km/h
13.04.2014 16:00 27,2 C 28 % 989,5 hPa 0,0 l/m 0,0 km/h N-NO 7,1 C 27,2 C 0,0 km/h
13.04.2014 17:00 27,9 C 26 % 989,1 hPa 0,0 l/m 0,0 km/h NW 6,6 C 27,9 C 0,0 km/h
13.04.2014 18:00 24,8 C 28 % 989,1 hPa 0,0 l/m 0,0 km/h N 5,0 C 24,8 C 0,0 km/h
13.04.2014 19:00 18,5 C 37 % 989,0 hPa 0,0 l/m 2,6 km/h N 3,5 C 18,5 C 1,4 km/h
13.04.2014 20:00 14,9 C 44 % 989,6 hPa 0,0 l/m 0,0 km/h O-NO 2,8 C 14,9 C 0,0 km/h
13.04.2014 21:00 12,4 C 51 % 990,2 hPa 0,0 l/m 0,0 km/h O-NO 2,6 C 12,4 C 0,0 km/h
13.04.2014 22:00 9,3 C 57 % 990,2 hPa 0,0 l/m 0,0 km/h O-SO 1,2 C 9,3 C 0,0 km/h
13.04.2014 23:00 7,1 C 67 % 990,7 hPa 0,0 l/m 0,0 km/h SO 1,4 C 7,1 C 0,0 km/h
Min-Datum _ 10.04.14 13.04.14 07.04.14 - 07.04.14 - 10.04.14 10.04.14 07.04.14
_ Min-Zeit 06:19 17:19 19:19 - 00:19 - 06:19 06:19 00:19
Minimum _ 1,4 C 26 % 984,1 hPa - 0,0 km/h - -1,2 C 1,4 C 0,0 km/h
Max-Datum _ 07.04.14 07.04.14 09.04.14 08.04.14 09.04.14 - 07.04.14 07.04.14 09.04.14
_ Max-Zeit 18:19 04:19 10:19 11:19 14:19 - 18:19 18:19 14:19
Maximum _ 32,3 C 84 % 997,9 hPa 0,3 l/m 50,5 km/h
W-NW
- 13,9 C 32,3 C 28,1 km/h
W-NW
Durchschnitt _ 15,0 C 59 % 989,8 hPa #0,3 l/m 2,3 km/h O-SO 6,2 C 14,7 C 1,3 km/h
www.sexauwetter.de